sensor_id;sensor_type;location;lat;lon;timestamp;temperature;humidity
25918;DHT22;13899;51.174;4.456;2023-11-19T00:00:20;13.60;99.90
25918;DHT22;13899;51.174;4.456;2023-11-19T00:02:45;13.60;99.90
25918;DHT22;13899;51.174;4.456;2023-11-19T00:05:12;13.60;99.90
25918;DHT22;13899;51.174;4.456;2023-11-19T00:07:39;13.60;99.90
25918;DHT22;13899;51.174;4.456;2023-11-19T00:10:12;13.60;99.90
25918;DHT22;13899;51.174;4.456;2023-11-19T00:12:43;13.70;99.90
25918;DHT22;13899;51.174;4.456;2023-11-19T00:15:13;13.70;99.90
25918;DHT22;13899;51.174;4.456;2023-11-19T00:17:39;13.60;99.90
25918;DHT22;13899;51.174;4.456;2023-11-19T00:20:06;13.60;99.90
25918;DHT22;13899;51.174;4.456;2023-11-19T00:22:31;13.60;99.90
25918;DHT22;13899;51.174;4.456;2023-11-19T00:24:58;13.60;99.90
25918;DHT22;13899;51.174;4.456;2023-11-19T00:27:25;13.60;99.90
25918;DHT22;13899;51.174;4.456;2023-11-19T00:29:50;13.60;99.90
25918;DHT22;13899;51.174;4.456;2023-11-19T00:32:16;13.60;99.90
25918;DHT22;13899;51.174;4.456;2023-11-19T00:34:46;13.70;99.90
25918;DHT22;13899;51.174;4.456;2023-11-19T00:37:13;13.70;99.90
25918;DHT22;13899;51.174;4.456;2023-11-19T00:39:39;13.70;99.90
25918;DHT22;13899;51.174;4.456;2023-11-19T00:42:04;13.70;99.90
25918;DHT22;13899;51.174;4.456;2023-11-19T00:44:31;13.70;99.90
25918;DHT22;13899;51.174;4.456;2023-11-19T00:46:56;13.70;99.90
25918;DHT22;13899;51.174;4.456;2023-11-19T00:49:22;13.70;99.90
25918;DHT22;13899;51.174;4.456;2023-11-19T00:51:47;13.70;99.90
25918;DHT22;13899;51.174;4.456;2023-11-19T00:54:14;13.70;99.90
25918;DHT22;13899;51.174;4.456;2023-11-19T00:56:40;13.80;99.90
25918;DHT22;13899;51.174;4.456;2023-11-19T00:59:05;13.70;99.90
25918;DHT22;13899;51.174;4.456;2023-11-19T01:01:31;13.80;99.90
25918;DHT22;13899;51.174;4.456;2023-11-19T01:03:56;13.70;99.90
25918;DHT22;13899;51.174;4.456;2023-11-19T01:06:31;13.80;99.90
25918;DHT22;13899;51.174;4.456;2023-11-19T01:08:57;13.70;99.90
25918;DHT22;13899;51.174;4.456;2023-11-19T01:11:24;13.70;99.90
25918;DHT22;13899;51.174;4.456;2023-11-19T01:13:51;13.70;99.90
25918;DHT22;13899;51.174;4.456;2023-11-19T01:16:17;13.70;99.90
25918;DHT22;13899;51.174;4.456;2023-11-19T01:18:43;13.80;99.90
25918;DHT22;13899;51.174;4.456;2023-11-19T01:21:08;13.80;99.90
25918;DHT22;13899;51.174;4.456;2023-11-19T01:23:34;13.80;99.90
25918;DHT22;13899;51.174;4.456;2023-11-19T01:26:00;13.80;99.90
25918;DHT22;13899;51.174;4.456;2023-11-19T01:28:26;13.80;99.90
25918;DHT22;13899;51.174;4.456;2023-11-19T01:30:52;13.80;99.90
25918;DHT22;13899;51.174;4.456;2023-11-19T01:33:18;13.80;99.90
25918;DHT22;13899;51.174;4.456;2023-11-19T01:35:44;13.80;99.90
25918;DHT22;13899;51.174;4.456;2023-11-19T01:38:09;13.70;99.90
25918;DHT22;13899;51.174;4.456;2023-11-19T01:40:36;13.70;99.90
25918;DHT22;13899;51.174;4.456;2023-11-19T01:43:02;13.70;99.90
25918;DHT22;13899;51.174;4.456;2023-11-19T01:45:29;13.70;99.90
25918;DHT22;13899;51.174;4.456;2023-11-19T01:48:00;13.70;99.90
25918;DHT22;13899;51.174;4.456;2023-11-19T01:50:28;13.80;99.90
25918;DHT22;13899;51.174;4.456;2023-11-19T01:52:54;13.70;99.90
25918;DHT22;13899;51.174;4.456;2023-11-19T01:55:23;13.70;99.90
25918;DHT22;13899;51.174;4.456;2023-11-19T01:57:49;13.60;99.90
25918;DHT22;13899;51.174;4.456;2023-11-19T02:00:16;13.60;99.90
25918;DHT22;13899;51.174;4.456;2023-11-19T02:02:45;13.60;99.90
25918;DHT22;13899;51.174;4.456;2023-11-19T02:05:12;13.50;99.90
25918;DHT22;13899;51.174;4.456;2023-11-19T02:07:40;13.60;99.90
25918;DHT22;13899;51.174;4.456;2023-11-19T02:10:06;13.60;99.90
25918;DHT22;13899;51.174;4.456;2023-11-19T02:12:39;13.70;99.90
25918;DHT22;13899;51.174;4.456;2023-11-19T02:15:08;13.50;99.90
25918;DHT22;13899;51.174;4.456;2023-11-19T02:17:34;13.60;99.90
25918;DHT22;13899;51.174;4.456;2023-11-19T02:20:00;13.50;99.90
25918;DHT22;13899;51.174;4.456;2023-11-19T02:22:26;13.40;99.90
25918;DHT22;13899;51.174;4.456;2023-11-19T02:24:59;13.40;99.90
25918;DHT22;13899;51.174;4.456;2023-11-19T02:29:51;13.30;99.90
25918;DHT22;13899;51.174;4.456;2023-11-19T02:32:17;13.40;99.90
25918;DHT22;13899;51.174;4.456;2023-11-19T02:34:42;13.30;99.90
25918;DHT22;13899;51.174;4.456;2023-11-19T02:37:08;13.30;99.90
25918;DHT22;13899;51.174;4.456;2023-11-19T02:39:35;13.30;99.90
25918;DHT22;13899;51.174;4.456;2023-11-19T02:42:02;13.30;99.90
25918;DHT22;13899;51.174;4.456;2023-11-19T02:44:27;13.20;99.90
25918;DHT22;13899;51.174;4.456;2023-11-19T02:46:55;13.20;99.90
25918;DHT22;13899;51.174;4.456;2023-11-19T02:49:25;13.10;99.90
25918;DHT22;13899;51.174;4.456;2023-11-19T02:51:50;13.10;99.90
25918;DHT22;13899;51.174;4.456;2023-11-19T02:54:16;13.00;99.90
25918;DHT22;13899;51.174;4.456;2023-11-19T02:56:45;13.10;99.90
25918;DHT22;13899;51.174;4.456;2023-11-19T02:59:13;13.10;99.90
25918;DHT22;13899;51.174;4.456;2023-11-19T03:01:52;13.00;99.90
25918;DHT22;13899;51.174;4.456;2023-11-19T03:04:19;13.00;99.90
25918;DHT22;13899;51.174;4.456;2023-11-19T03:06:46;13.00;99.90
25918;DHT22;13899;51.174;4.456;2023-11-19T03:09:11;13.00;99.90
25918;DHT22;13899;51.174;4.456;2023-11-19T03:11:37;13.00;99.90
25918;DHT22;13899;51.174;4.456;2023-11-19T03:14:03;13.00;99.90
25918;DHT22;13899;51.174;4.456;2023-11-19T03:16:30;12.90;99.90
25918;DHT22;13899;51.174;4.456;2023-11-19T03:18:55;13.00;99.90
25918;DHT22;13899;51.174;4.456;2023-11-19T03:21:28;13.00;99.90
25918;DHT22;13899;51.174;4.456;2023-11-19T03:23:54;13.00;99.90
25918;DHT22;13899;51.174;4.456;2023-11-19T03:26:21;13.00;99.90
25918;DHT22;13899;51.174;4.456;2023-11-19T03:28:47;13.00;99.90
25918;DHT22;13899;51.174;4.456;2023-11-19T03:31:13;13.00;99.90
25918;DHT22;13899;51.174;4.456;2023-11-19T03:33:39;13.00;99.90
25918;DHT22;13899;51.174;4.456;2023-11-19T03:36:05;13.10;99.90
25918;DHT22;13899;51.174;4.456;2023-11-19T03:38:31;13.10;99.90
25918;DHT22;13899;51.174;4.456;2023-11-19T03:40:57;13.00;99.90
25918;DHT22;13899;51.174;4.456;2023-11-19T03:43:22;13.10;99.90
25918;DHT22;13899;51.174;4.456;2023-11-19T03:45:48;13.00;99.90
25918;DHT22;13899;51.174;4.456;2023-11-19T03:48:14;13.00;99.90
25918;DHT22;13899;51.174;4.456;2023-11-19T03:50:41;13.00;99.90
25918;DHT22;13899;51.174;4.456;2023-11-19T03:53:07;13.00;99.90
25918;DHT22;13899;51.174;4.456;2023-11-19T03:55:33;13.00;99.90
25918;DHT22;13899;51.174;4.456;2023-11-19T03:57:59;13.10;99.90
25918;DHT22;13899;51.174;4.456;2023-11-19T04:00:24;13.10;99.90
25918;DHT22;13899;51.174;4.456;2023-11-19T04:02:50;13.10;99.90
25918;DHT22;13899;51.174;4.456;2023-11-19T04:05:16;13.10;99.90
25918;DHT22;13899;51.174;4.456;2023-11-19T04:07:44;13.10;99.90
25918;DHT22;13899;51.174;4.456;2023-11-19T04:10:09;13.10;99.90
25918;DHT22;13899;51.174;4.456;2023-11-19T04:12:35;13.10;99.90
25918;DHT22;13899;51.174;4.456;2023-11-19T04:15:01;13.10;99.90
25918;DHT22;13899;51.174;4.456;2023-11-19T04:17:26;13.00;99.90
25918;DHT22;13899;51.174;4.456;2023-11-19T04:19:52;13.00;99.90
25918;DHT22;13899;51.174;4.456;2023-11-19T04:22:17;12.90;99.90
25918;DHT22;13899;51.174;4.456;2023-11-19T04:24:43;12.80;99.90
25918;DHT22;13899;51.174;4.456;2023-11-19T04:27:10;12.80;99.90
25918;DHT22;13899;51.174;4.456;2023-11-19T04:29:36;12.70;99.90
25918;DHT22;13899;51.174;4.456;2023-11-19T04:32:02;12.80;99.90
25918;DHT22;13899;51.174;4.456;2023-11-19T04:34:27;12.60;99.90
25918;DHT22;13899;51.174;4.456;2023-11-19T04:36:53;12.70;99.90
25918;DHT22;13899;51.174;4.456;2023-11-19T04:39:19;12.70;99.90
25918;DHT22;13899;51.174;4.456;2023-11-19T04:41:49;12.70;99.90
25918;DHT22;13899;51.174;4.456;2023-11-19T04:44:18;12.60;99.90
25918;DHT22;13899;51.174;4.456;2023-11-19T04:46:44;12.60;99.90
25918;DHT22;13899;51.174;4.456;2023-11-19T04:49:10;12.60;99.90
25918;DHT22;13899;51.174;4.456;2023-11-19T04:51:45;12.70;99.90
25918;DHT22;13899;51.174;4.456;2023-11-19T04:54:12;12.60;99.90
25918;DHT22;13899;51.174;4.456;2023-11-19T04:56:38;12.50;99.90
25918;DHT22;13899;51.174;4.456;2023-11-19T04:59:05;12.40;99.90
25918;DHT22;13899;51.174;4.456;2023-11-19T05:01:32;12.40;99.90
25918;DHT22;13899;51.174;4.456;2023-11-19T05:03:57;12.50;99.90
25918;DHT22;13899;51.174;4.456;2023-11-19T05:06:29;12.40;99.90
25918;DHT22;13899;51.174;4.456;2023-11-19T05:08:56;12.50;99.90
25918;DHT22;13899;51.174;4.456;2023-11-19T05:11:22;12.50;99.90
25918;DHT22;13899;51.174;4.456;2023-11-19T05:13:48;12.40;99.90
25918;DHT22;13899;51.174;4.456;2023-11-19T05:16:13;12.30;99.90
25918;DHT22;13899;51.174;4.456;2023-11-19T05:18:42;12.40;99.90
25918;DHT22;13899;51.174;4.456;2023-11-19T05:21:08;12.40;99.90
25918;DHT22;13899;51.174;4.456;2023-11-19T05:23:34;12.30;99.90
25918;DHT22;13899;51.174;4.456;2023-11-19T05:26:01;12.20;99.90
25918;DHT22;13899;51.174;4.456;2023-11-19T05:28:27;12.30;99.90
25918;DHT22;13899;51.174;4.456;2023-11-19T05:30:52;12.30;99.90
25918;DHT22;13899;51.174;4.456;2023-11-19T05:33:18;12.30;99.90
25918;DHT22;13899;51.174;4.456;2023-11-19T05:35:43;12.40;99.90
25918;DHT22;13899;51.174;4.456;2023-11-19T05:38:09;12.30;99.90
25918;DHT22;13899;51.174;4.456;2023-11-19T05:40:35;12.30;99.90
25918;DHT22;13899;51.174;4.456;2023-11-19T05:43:01;12.30;99.90
25918;DHT22;13899;51.174;4.456;2023-11-19T05:45:27;12.30;99.90
25918;DHT22;13899;51.174;4.456;2023-11-19T05:47:52;12.20;99.90
25918;DHT22;13899;51.174;4.456;2023-11-19T05:50:18;12.10;99.90
25918;DHT22;13899;51.174;4.456;2023-11-19T05:52:44;12.00;99.90
25918;DHT22;13899;51.174;4.456;2023-11-19T05:55:09;12.10;99.90
25918;DHT22;13899;51.174;4.456;2023-11-19T05:57:39;12.10;99.90
25918;DHT22;13899;51.174;4.456;2023-11-19T06:00:08;12.00;99.90
25918;DHT22;13899;51.174;4.456;2023-11-19T06:02:34;11.90;99.90
25918;DHT22;13899;51.174;4.456;2023-11-19T06:05:00;12.00;99.90
25918;DHT22;13899;51.174;4.456;2023-11-19T06:07:27;12.00;99.90
25918;DHT22;13899;51.174;4.456;2023-11-19T06:09:52;12.00;99.90
25918;DHT22;13899;51.174;4.456;2023-11-19T06:12:18;12.00;99.90
25918;DHT22;13899;51.174;4.456;2023-11-19T06:14:44;12.10;99.90
25918;DHT22;13899;51.174;4.456;2023-11-19T06:17:09;12.10;99.90
25918;DHT22;13899;51.174;4.456;2023-11-19T06:19:36;12.10;99.90
25918;DHT22;13899;51.174;4.456;2023-11-19T06:22:03;12.10;99.90
25918;DHT22;13899;51.174;4.456;2023-11-19T06:24:29;12.10;99.90
25918;DHT22;13899;51.174;4.456;2023-11-19T06:26:54;12.00;99.90
25918;DHT22;13899;51.174;4.456;2023-11-19T06:29:20;12.10;99.90
25918;DHT22;13899;51.174;4.456;2023-11-19T06:31:45;12.10;99.90
25918;DHT22;13899;51.174;4.456;2023-11-19T06:34:14;12.00;99.90
25918;DHT22;13899;51.174;4.456;2023-11-19T06:36:39;12.00;99.90
25918;DHT22;13899;51.174;4.456;2023-11-19T06:39:05;11.90;99.90
25918;DHT22;13899;51.174;4.456;2023-11-19T06:41:31;11.90;99.90
25918;DHT22;13899;51.174;4.456;2023-11-19T06:43:57;11.90;99.90
25918;DHT22;13899;51.174;4.456;2023-11-19T06:46:22;11.80;99.90
25918;DHT22;13899;51.174;4.456;2023-11-19T06:48:48;11.90;99.90
25918;DHT22;13899;51.174;4.456;2023-11-19T06:51:13;11.90;99.90
25918;DHT22;13899;51.174;4.456;2023-11-19T06:53:39;11.80;99.90
25918;DHT22;13899;51.174;4.456;2023-11-19T06:56:16;11.80;99.90
25918;DHT22;13899;51.174;4.456;2023-11-19T06:58:42;11.80;99.90
25918;DHT22;13899;51.174;4.456;2023-11-19T07:01:08;11.80;99.90
25918;DHT22;13899;51.174;4.456;2023-11-19T07:03:35;11.90;99.90
25918;DHT22;13899;51.174;4.456;2023-11-19T07:06:00;11.90;99.90
25918;DHT22;13899;51.174;4.456;2023-11-19T07:08:26;11.80;99.90
25918;DHT22;13899;51.174;4.456;2023-11-19T07:10:52;11.80;99.90
25918;DHT22;13899;51.174;4.456;2023-11-19T07:13:18;11.80;99.90
25918;DHT22;13899;51.174;4.456;2023-11-19T07:15:44;11.70;99.90
25918;DHT22;13899;51.174;4.456;2023-11-19T07:18:10;11.90;99.90
25918;DHT22;13899;51.174;4.456;2023-11-19T07:20:37;11.90;99.90
25918;DHT22;13899;51.174;4.456;2023-11-19T07:23:03;11.80;99.90
25918;DHT22;13899;51.174;4.456;2023-11-19T07:25:29;11.70;99.90
25918;DHT22;13899;51.174;4.456;2023-11-19T07:27:55;11.80;99.90
25918;DHT22;13899;51.174;4.456;2023-11-19T07:30:21;11.70;99.90
25918;DHT22;13899;51.174;4.456;2023-11-19T07:32:47;11.80;99.90
25918;DHT22;13899;51.174;4.456;2023-11-19T07:35:14;11.80;99.90
25918;DHT22;13899;51.174;4.456;2023-11-19T07:37:41;11.80;99.90
25918;DHT22;13899;51.174;4.456;2023-11-19T07:40:08;11.80;99.90
25918;DHT22;13899;51.174;4.456;2023-11-19T07:42:33;11.80;99.90
25918;DHT22;13899;51.174;4.456;2023-11-19T07:44:59;11.90;99.90
25918;DHT22;13899;51.174;4.456;2023-11-19T07:47:25;11.90;99.90
25918;DHT22;13899;51.174;4.456;2023-11-19T07:49:51;12.00;99.90
25918;DHT22;13899;51.174;4.456;2023-11-19T07:52:16;11.90;99.90
25918;DHT22;13899;51.174;4.456;2023-11-19T07:54:42;12.00;99.90
25918;DHT22;13899;51.174;4.456;2023-11-19T07:57:08;12.00;99.90
25918;DHT22;13899;51.174;4.456;2023-11-19T07:59:33;12.10;99.90
25918;DHT22;13899;51.174;4.456;2023-11-19T08:01:59;12.20;99.90
25918;DHT22;13899;51.174;4.456;2023-11-19T08:04:24;12.10;99.90
25918;DHT22;13899;51.174;4.456;2023-11-19T08:06:50;12.10;99.90
25918;DHT22;13899;51.174;4.456;2023-11-19T08:09:16;12.10;99.90
25918;DHT22;13899;51.174;4.456;2023-11-19T08:11:43;12.10;99.90
25918;DHT22;13899;51.174;4.456;2023-11-19T08:14:08;12.20;99.90
25918;DHT22;13899;51.174;4.456;2023-11-19T08:16:34;12.20;99.90
25918;DHT22;13899;51.174;4.456;2023-11-19T08:19:00;12.20;99.90
25918;DHT22;13899;51.174;4.456;2023-11-19T08:21:25;12.30;99.90
25918;DHT22;13899;51.174;4.456;2023-11-19T08:23:52;12.30;99.90
25918;DHT22;13899;51.174;4.456;2023-11-19T08:26:18;12.40;99.90
25918;DHT22;13899;51.174;4.456;2023-11-19T08:28:43;12.30;99.90
25918;DHT22;13899;51.174;4.456;2023-11-19T08:31:09;12.30;99.90
25918;DHT22;13899;51.174;4.456;2023-11-19T08:33:34;12.30;99.90
25918;DHT22;13899;51.174;4.456;2023-11-19T08:36:01;12.40;99.90
25918;DHT22;13899;51.174;4.456;2023-11-19T08:38:26;12.40;99.90
25918;DHT22;13899;51.174;4.456;2023-11-19T08:40:52;12.40;99.90
25918;DHT22;13899;51.174;4.456;2023-11-19T08:43:17;12.40;99.90
25918;DHT22;13899;51.174;4.456;2023-11-19T08:45:43;12.40;99.90
25918;DHT22;13899;51.174;4.456;2023-11-19T08:48:09;12.50;99.90
25918;DHT22;13899;51.174;4.456;2023-11-19T08:50:34;12.60;99.90
25918;DHT22;13899;51.174;4.456;2023-11-19T08:53:00;12.50;99.90
25918;DHT22;13899;51.174;4.456;2023-11-19T08:55:25;12.60;99.90
25918;DHT22;13899;51.174;4.456;2023-11-19T08:57:51;12.70;99.90
25918;DHT22;13899;51.174;4.456;2023-11-19T09:00:17;12.60;99.90
25918;DHT22;13899;51.174;4.456;2023-11-19T09:02:43;12.50;99.90
25918;DHT22;13899;51.174;4.456;2023-11-19T09:05:09;12.50;99.90
25918;DHT22;13899;51.174;4.456;2023-11-19T09:07:34;12.60;99.90
25918;DHT22;13899;51.174;4.456;2023-11-19T09:10:00;12.70;99.90
25918;DHT22;13899;51.174;4.456;2023-11-19T09:12:26;12.80;99.90
25918;DHT22;13899;51.174;4.456;2023-11-19T09:14:51;12.80;99.90
25918;DHT22;13899;51.174;4.456;2023-11-19T09:17:17;12.80;99.90
25918;DHT22;13899;51.174;4.456;2023-11-19T09:19:43;12.80;99.90
25918;DHT22;13899;51.174;4.456;2023-11-19T09:22:09;12.90;99.90
25918;DHT22;13899;51.174;4.456;2023-11-19T09:24:35;13.00;99.90
25918;DHT22;13899;51.174;4.456;2023-11-19T09:27:00;13.20;99.90
25918;DHT22;13899;51.174;4.456;2023-11-19T09:29:26;13.10;99.90
25918;DHT22;13899;51.174;4.456;2023-11-19T09:31:51;13.30;99.90
25918;DHT22;13899;51.174;4.456;2023-11-19T09:34:17;13.40;99.90
25918;DHT22;13899;51.174;4.456;2023-11-19T09:36:43;13.70;99.90
25918;DHT22;13899;51.174;4.456;2023-11-19T09:39:10;13.70;99.90
25918;DHT22;13899;51.174;4.456;2023-11-19T09:41:36;14.20;99.90
25918;DHT22;13899;51.174;4.456;2023-11-19T09:44:01;14.10;99.90
25918;DHT22;13899;51.174;4.456;2023-11-19T09:46:28;13.90;99.90
25918;DHT22;13899;51.174;4.456;2023-11-19T09:48:56;14.00;99.90
25918;DHT22;13899;51.174;4.456;2023-11-19T09:51:23;13.70;99.90
25918;DHT22;13899;51.174;4.456;2023-11-19T09:53:49;13.60;99.90
25918;DHT22;13899;51.174;4.456;2023-11-19T09:56:15;13.70;99.90
25918;DHT22;13899;51.174;4.456;2023-11-19T09:58:42;13.90;99.90
25918;DHT22;13899;51.174;4.456;2023-11-19T10:01:08;14.20;99.90
25918;DHT22;13899;51.174;4.456;2023-11-19T10:03:38;14.40;99.90
25918;DHT22;13899;51.174;4.456;2023-11-19T10:06:08;14.70;99.90
25918;DHT22;13899;51.174;4.456;2023-11-19T10:08:37;14.50;99.90
25918;DHT22;13899;51.174;4.456;2023-11-19T10:11:03;14.70;99.90
25918;DHT22;13899;51.174;4.456;2023-11-19T10:13:29;14.60;99.90
25918;DHT22;13899;51.174;4.456;2023-11-19T10:15:56;14.40;99.90
25918;DHT22;13899;51.174;4.456;2023-11-19T10:18:26;14.50;99.90
25918;DHT22;13899;51.174;4.456;2023-11-19T10:20:52;14.30;99.90
25918;DHT22;13899;51.174;4.456;2023-11-19T10:23:18;14.30;99.90
25918;DHT22;13899;51.174;4.456;2023-11-19T10:25:44;14.40;99.90
25918;DHT22;13899;51.174;4.456;2023-11-19T10:28:10;14.00;99.90
25918;DHT22;13899;51.174;4.456;2023-11-19T10:30:36;13.70;99.90
25918;DHT22;13899;51.174;4.456;2023-11-19T10:33:05;13.60;99.90
25918;DHT22;13899;51.174;4.456;2023-11-19T10:35:36;13.40;99.90
25918;DHT22;13899;51.174;4.456;2023-11-19T10:38:14;13.20;99.90
25918;DHT22;13899;51.174;4.456;2023-11-19T10:40:42;13.10;99.90
25918;DHT22;13899;51.174;4.456;2023-11-19T10:43:08;13.00;99.90
25918;DHT22;13899;51.174;4.456;2023-11-19T10:45:38;12.90;99.90
25918;DHT22;13899;51.174;4.456;2023-11-19T10:48:05;12.90;99.90
25918;DHT22;13899;51.174;4.456;2023-11-19T10:50:34;12.90;99.90
25918;DHT22;13899;51.174;4.456;2023-11-19T10:53:00;13.10;99.90
25918;DHT22;13899;51.174;4.456;2023-11-19T10:55:28;13.80;99.90
25918;DHT22;13899;51.174;4.456;2023-11-19T10:58:00;14.20;99.90
25918;DHT22;13899;51.174;4.456;2023-11-19T11:00:34;14.90;99.90
25918;DHT22;13899;51.174;4.456;2023-11-19T11:03:08;15.10;99.90
25918;DHT22;13899;51.174;4.456;2023-11-19T11:05:36;14.70;99.90
25918;DHT22;13899;51.174;4.456;2023-11-19T11:08:06;14.00;99.90
25918;DHT22;13899;51.174;4.456;2023-11-19T11:10:34;13.60;99.90
25918;DHT22;13899;51.174;4.456;2023-11-19T11:13:03;13.70;99.90
25918;DHT22;13899;51.174;4.456;2023-11-19T11:15:30;13.40;99.90
25918;DHT22;13899;51.174;4.456;2023-11-19T11:18:02;13.50;99.90
25918;DHT22;13899;51.174;4.456;2023-11-19T11:20:31;13.60;99.90
25918;DHT22;13899;51.174;4.456;2023-11-19T11:25:55;14.10;99.90
25918;DHT22;13899;51.174;4.456;2023-11-19T11:28:41;14.30;99.90
25918;DHT22;13899;51.174;4.456;2023-11-19T11:34:36;14.90;99.90
25918;DHT22;13899;51.174;4.456;2023-11-19T11:39:57;15.10;99.90
25918;DHT22;13899;51.174;4.456;2023-11-19T11:45:05;16.00;99.90
25918;DHT22;13899;51.174;4.456;2023-11-19T11:50:10;15.50;99.90
25918;DHT22;13899;51.174;4.456;2023-11-19T11:55:37;15.90;99.90
25918;DHT22;13899;51.174;4.456;2023-11-19T11:58:06;15.10;99.90
25918;DHT22;13899;51.174;4.456;2023-11-19T12:02:59;14.60;99.90
25918;DHT22;13899;51.174;4.456;2023-11-19T12:05:25;14.40;99.90
25918;DHT22;13899;51.174;4.456;2023-11-19T12:07:55;14.30;99.90
25918;DHT22;13899;51.174;4.456;2023-11-19T12:10:24;13.70;99.90
25918;DHT22;13899;51.174;4.456;2023-11-19T12:12:53;13.40;99.90
25918;DHT22;13899;51.174;4.456;2023-11-19T12:15:18;13.10;99.90
25918;DHT22;13899;51.174;4.456;2023-11-19T12:17:49;12.80;99.90
25918;DHT22;13899;51.174;4.456;2023-11-19T12:20:15;12.60;99.90
25918;DHT22;13899;51.174;4.456;2023-11-19T12:22:43;12.50;99.90
25918;DHT22;13899;51.174;4.456;2023-11-19T12:25:12;12.60;99.90
25918;DHT22;13899;51.174;4.456;2023-11-19T12:27:48;12.40;99.90
25918;DHT22;13899;51.174;4.456;2023-11-19T12:30:24;12.20;99.90
25918;DHT22;13899;51.174;4.456;2023-11-19T12:32:50;12.20;99.90
25918;DHT22;13899;51.174;4.456;2023-11-19T12:35:16;12.10;99.90
25918;DHT22;13899;51.174;4.456;2023-11-19T12:37:46;12.00;99.90
25918;DHT22;13899;51.174;4.456;2023-11-19T12:40:17;12.00;99.90
25918;DHT22;13899;51.174;4.456;2023-11-19T12:42:43;12.00;99.90
25918;DHT22;13899;51.174;4.456;2023-11-19T12:45:09;12.30;99.90
25918;DHT22;13899;51.174;4.456;2023-11-19T12:47:36;12.40;99.90
25918;DHT22;13899;51.174;4.456;2023-11-19T12:50:02;12.70;99.90
25918;DHT22;13899;51.174;4.456;2023-11-19T12:52:29;13.40;99.90
25918;DHT22;13899;51.174;4.456;2023-11-19T12:54:55;13.60;99.90
25918;DHT22;13899;51.174;4.456;2023-11-19T12:57:39;13.50;99.90
25918;DHT22;13899;51.174;4.456;2023-11-19T13:00:05;13.60;99.90
25918;DHT22;13899;51.174;4.456;2023-11-19T13:02:45;13.30;99.90
25918;DHT22;13899;51.174;4.456;2023-11-19T13:05:31;13.60;99.90
25918;DHT22;13899;51.174;4.456;2023-11-19T13:08:08;13.80;99.90
25918;DHT22;13899;51.174;4.456;2023-11-19T13:13:18;13.20;99.90
25918;DHT22;13899;51.174;4.456;2023-11-19T13:15:44;13.20;99.90
25918;DHT22;13899;51.174;4.456;2023-11-19T13:18:10;13.10;99.90
25918;DHT22;13899;51.174;4.456;2023-11-19T13:20:36;13.00;99.90
25918;DHT22;13899;51.174;4.456;2023-11-19T13:23:03;12.90;99.90
25918;DHT22;13899;51.174;4.456;2023-11-19T13:25:30;12.90;99.90
25918;DHT22;13899;51.174;4.456;2023-11-19T13:27:57;12.90;99.90
25918;DHT22;13899;51.174;4.456;2023-11-19T13:30:23;12.70;99.90
25918;DHT22;13899;51.174;4.456;2023-11-19T13:32:52;12.80;99.90
25918;DHT22;13899;51.174;4.456;2023-11-19T13:35:20;13.10;99.90
25918;DHT22;13899;51.174;4.456;2023-11-19T13:37:46;13.00;99.90
25918;DHT22;13899;51.174;4.456;2023-11-19T13:40:12;13.30;99.90
25918;DHT22;13899;51.174;4.456;2023-11-19T13:42:42;13.40;99.90
25918;DHT22;13899;51.174;4.456;2023-11-19T13:45:11;13.70;99.90
25918;DHT22;13899;51.174;4.456;2023-11-19T13:47:47;13.70;99.90
25918;DHT22;13899;51.174;4.456;2023-11-19T13:50:14;13.80;99.90
25918;DHT22;13899;51.174;4.456;2023-11-19T13:52:40;13.50;99.90
25918;DHT22;13899;51.174;4.456;2023-11-19T13:55:07;13.40;99.90
25918;DHT22;13899;51.174;4.456;2023-11-19T13:57:34;13.30;99.90
25918;DHT22;13899;51.174;4.456;2023-11-19T14:00:04;13.20;99.90
25918;DHT22;13899;51.174;4.456;2023-11-19T14:02:41;13.10;99.90
25918;DHT22;13899;51.174;4.456;2023-11-19T14:05:07;13.00;99.90
25918;DHT22;13899;51.174;4.456;2023-11-19T14:07:33;12.90;99.90
25918;DHT22;13899;51.174;4.456;2023-11-19T14:09:59;13.10;99.90
25918;DHT22;13899;51.174;4.456;2023-11-19T14:12:24;13.20;99.90
25918;DHT22;13899;51.174;4.456;2023-11-19T14:14:50;13.10;99.90
25918;DHT22;13899;51.174;4.456;2023-11-19T14:17:16;13.20;99.90
25918;DHT22;13899;51.174;4.456;2023-11-19T14:19:42;13.00;99.90
25918;DHT22;13899;51.174;4.456;2023-11-19T14:22:08;12.90;99.90
25918;DHT22;13899;51.174;4.456;2023-11-19T14:24:34;13.00;99.90
25918;DHT22;13899;51.174;4.456;2023-11-19T14:27:00;13.00;99.90
25918;DHT22;13899;51.174;4.456;2023-11-19T14:29:27;12.70;99.90
25918;DHT22;13899;51.174;4.456;2023-11-19T14:31:55;12.60;99.90
25918;DHT22;13899;51.174;4.456;2023-11-19T14:34:20;12.50;99.90
25918;DHT22;13899;51.174;4.456;2023-11-19T14:36:46;12.40;99.90
25918;DHT22;13899;51.174;4.456;2023-11-19T14:39:12;12.30;99.90
25918;DHT22;13899;51.174;4.456;2023-11-19T14:41:38;12.30;99.90
25918;DHT22;13899;51.174;4.456;2023-11-19T14:44:04;12.40;99.90
25918;DHT22;13899;51.174;4.456;2023-11-19T14:46:31;12.40;99.90
25918;DHT22;13899;51.174;4.456;2023-11-19T14:48:56;12.40;99.90
25918;DHT22;13899;51.174;4.456;2023-11-19T14:51:22;12.30;99.90
25918;DHT22;13899;51.174;4.456;2023-11-19T14:53:48;12.30;99.90
25918;DHT22;13899;51.174;4.456;2023-11-19T14:56:13;12.30;99.90
25918;DHT22;13899;51.174;4.456;2023-11-19T14:58:39;12.30;99.90
25918;DHT22;13899;51.174;4.456;2023-11-19T15:01:05;12.20;99.90
25918;DHT22;13899;51.174;4.456;2023-11-19T15:03:31;12.20;99.90
25918;DHT22;13899;51.174;4.456;2023-11-19T15:05:57;12.30;99.90
25918;DHT22;13899;51.174;4.456;2023-11-19T15:08:23;12.30;99.90
25918;DHT22;13899;51.174;4.456;2023-11-19T15:10:50;12.30;99.90
25918;DHT22;13899;51.174;4.456;2023-11-19T15:13:15;12.30;99.90
25918;DHT22;13899;51.174;4.456;2023-11-19T15:15:41;12.30;99.90
25918;DHT22;13899;51.174;4.456;2023-11-19T15:18:07;12.20;99.90
25918;DHT22;13899;51.174;4.456;2023-11-19T15:20:33;12.20;99.90
25918;DHT22;13899;51.174;4.456;2023-11-19T15:22:58;12.20;99.90
25918;DHT22;13899;51.174;4.456;2023-11-19T15:25:24;12.20;99.90
25918;DHT22;13899;51.174;4.456;2023-11-19T15:27:50;12.20;99.90
25918;DHT22;13899;51.174;4.456;2023-11-19T15:30:16;12.20;99.90
25918;DHT22;13899;51.174;4.456;2023-11-19T15:32:42;12.20;99.90
25918;DHT22;13899;51.174;4.456;2023-11-19T15:35:08;12.20;99.90
25918;DHT22;13899;51.174;4.456;2023-11-19T15:37:36;12.20;99.90
25918;DHT22;13899;51.174;4.456;2023-11-19T15:40:03;12.30;99.90
25918;DHT22;13899;51.174;4.456;2023-11-19T15:42:31;12.30;99.90
25918;DHT22;13899;51.174;4.456;2023-11-19T15:44:57;12.30;99.90
25918;DHT22;13899;51.174;4.456;2023-11-19T15:47:22;12.40;99.90
25918;DHT22;13899;51.174;4.456;2023-11-19T15:49:49;12.40;99.90
25918;DHT22;13899;51.174;4.456;2023-11-19T15:52:15;12.40;99.90